createdAt,value
2022-11-17T00:04:01.540Z,8.60
2022-11-17T00:09:04.952Z,11.77
2022-11-17T00:14:30.896Z,11.87
2022-11-17T00:19:51.647Z,9.07
2022-11-17T00:24:54.876Z,10.77
2022-11-17T00:29:59.567Z,10.73
2022-11-17T00:35:03.255Z,7.60
2022-11-17T00:40:07.176Z,10.27
2022-11-17T00:45:12.020Z,8.90
2022-11-17T00:50:15.311Z,8.93
2022-11-17T00:55:18.584Z,11.23
2022-11-17T01:00:23.275Z,10.27
2022-11-17T01:05:30.358Z,10.37
2022-11-17T01:10:36.341Z,8.80
2022-11-17T01:15:41.161Z,7.67
2022-11-17T01:20:44.959Z,8.03
2022-11-17T01:25:48.431Z,7.13
2022-11-17T01:31:00.478Z,7.90
2022-11-17T01:36:09.249Z,7.30
2022-11-17T01:41:14.765Z,8.90
2022-11-17T01:46:27.463Z,7.10
2022-11-17T01:51:31.324Z,7.40
2022-11-17T01:56:38.942Z,9.47
2022-11-17T02:01:55.873Z,8.10
2022-11-17T02:07:03.120Z,7.50
2022-11-17T02:12:07.159Z,7.37
2022-11-17T02:17:14.432Z,7.33
2022-11-17T02:22:29.281Z,9.67
2022-11-17T02:27:42.633Z,10.93
2022-11-17T02:32:54.177Z,10.50
2022-11-17T02:38:02.757Z,10.60
2022-11-17T02:43:26.040Z,10.77
2022-11-17T02:48:33.605Z,9.80
2022-11-17T02:53:37.220Z,8.33
2022-11-17T02:58:40.700Z,8.10
2022-11-17T03:03:51.436Z,7.90
2022-11-17T03:08:59.272Z,7.53
2022-11-17T03:14:05.584Z,6.13
2022-11-17T03:19:12.487Z,6.30
2022-11-17T03:24:18.244Z,5.43
2022-11-17T03:29:23.349Z,5.70
2022-11-17T03:34:30.549Z,9.33
2022-11-17T03:39:35.121Z,5.07
2022-11-17T03:44:40.734Z,3.60
2022-11-17T03:49:48.747Z,5.10
2022-11-17T03:54:52.110Z,3.77
2022-11-17T03:59:58.003Z,4.97
2022-11-17T04:05:08.537Z,6.63
2022-11-17T04:10:13.219Z,5.73
2022-11-17T04:15:33.842Z,4.63
2022-11-17T04:20:38.446Z,8.37
2022-11-17T04:26:00.079Z,7.00
2022-11-17T04:31:03.296Z,6.43
2022-11-17T04:36:08.492Z,6.97
2022-11-17T04:41:30.223Z,7.10
2022-11-17T04:46:34.228Z,9.83
2022-11-17T04:51:39.151Z,6.37
2022-11-17T04:56:42.631Z,3.70
2022-11-17T05:01:46.536Z,6.40
2022-11-17T05:06:51.299Z,10.80
2022-11-17T05:12:12.053Z,8.50
2022-11-17T05:17:15.258Z,7.87
2022-11-17T05:22:38.133Z,5.53
2022-11-17T05:27:41.544Z,6.90
2022-11-17T05:32:44.825Z,6.47
2022-11-17T05:37:49.862Z,5.67
2022-11-17T05:43:16.770Z,4.43
2022-11-17T05:48:23.702Z,7.17
2022-11-17T05:53:30.228Z,7.80
2022-11-17T05:58:35.300Z,5.97
2022-11-17T06:03:53.646Z,6.27
2022-11-17T06:09:03.968Z,4.53
2022-11-17T06:14:07.599Z,8.27
2022-11-17T06:19:14.536Z,8.10
2022-11-17T06:24:19.623Z,7.40
2022-11-17T06:29:23.068Z,6.20
2022-11-17T06:34:27.707Z,8.77
2022-11-17T06:39:33.391Z,8.77
2022-11-17T06:44:38.518Z,9.17
2022-11-17T06:49:42.716Z,5.50
2022-11-17T06:54:47.504Z,7.50
2022-11-17T06:59:52.641Z,10.17
2022-11-17T07:04:55.863Z,7.77
2022-11-17T07:10:27.616Z,9.60
2022-11-17T07:16:00.957Z,8.60
2022-11-17T07:21:24.137Z,6.10
2022-11-17T07:26:55.044Z,8.10
2022-11-17T07:32:31.590Z,7.70
2022-11-17T07:37:39.264Z,9.17
2022-11-17T07:42:49.722Z,9.23
2022-11-17T07:47:57.758Z,7.87
2022-11-17T07:53:01.447Z,7.07
2022-11-17T07:58:06.694Z,8.30
2022-11-17T08:03:10.325Z,7.37
2022-11-17T08:08:15.458Z,8.13
2022-11-17T08:13:20.507Z,7.57
2022-11-17T08:18:25.674Z,7.87
2022-11-17T08:23:29.332Z,10.27
2022-11-17T08:28:35.116Z,7.87
2022-11-17T08:33:38.987Z,9.57
2022-11-17T08:38:42.772Z,8.53
2022-11-17T08:43:48.221Z,12.93
2022-11-17T08:48:56.857Z,6.60
2022-11-17T08:54:00.961Z,8.90
2022-11-17T08:59:06.012Z,7.63
2022-11-17T09:04:09.264Z,11.27
2022-11-17T09:09:12.468Z,9.40
2022-11-17T09:14:17.194Z,10.00
2022-11-17T09:19:20.461Z,10.23
2022-11-17T09:24:24.036Z,12.07
2022-11-17T09:29:28.784Z,8.33
2022-11-17T09:34:32.183Z,9.93
2022-11-17T09:39:35.425Z,11.83
2022-11-17T09:44:41.699Z,10.33
2022-11-17T09:49:53.630Z,8.17
2022-11-17T09:55:02.471Z,8.30
2022-11-17T10:00:13.745Z,8.73
2022-11-17T10:05:20.476Z,8.60
2022-11-17T10:10:26.347Z,7.27
2022-11-17T10:15:32.162Z,6.77
2022-11-17T10:20:35.516Z,7.50
2022-11-17T10:25:39.694Z,4.87
2022-11-17T10:30:53.545Z,5.17
2022-11-17T10:35:58.134Z,1.63
2022-11-17T10:41:03.113Z,3.00
2022-11-17T10:46:14.413Z,2.00
2022-11-17T10:51:22.999Z,1.30
2022-11-17T10:56:26.512Z,3.03
2022-11-17T11:01:36.157Z,2.33
2022-11-17T11:06:39.507Z,4.10
2022-11-17T11:11:45.267Z,2.87
2022-11-17T11:16:51.465Z,3.33
2022-11-17T11:22:02.006Z,3.50
2022-11-17T11:27:10.166Z,2.80
2022-11-17T11:32:24.536Z,2.73
2022-11-17T11:37:31.139Z,3.73
2022-11-17T11:42:45.212Z,2.53
2022-11-17T11:48:09.065Z,4.83
2022-11-17T11:53:17.039Z,3.67
2022-11-17T11:58:22.182Z,3.70
2022-11-17T12:03:32.881Z,4.27
2022-11-17T12:08:39.547Z,2.47
2022-11-17T12:13:49.768Z,4.20
2022-11-17T12:18:57.825Z,7.23
2022-11-17T12:24:13.693Z,4.87
2022-11-17T12:29:30.862Z,3.13
2022-11-17T12:34:37.446Z,6.80
2022-11-17T12:39:57.837Z,2.50
2022-11-17T12:45:10.975Z,3.13
2022-11-17T12:50:41.933Z,2.83
2022-11-17T12:56:12.671Z,4.60
2022-11-17T13:01:21.830Z,8.07
2022-11-17T13:06:35.583Z,3.27
2022-11-17T13:11:40.037Z,6.87
2022-11-17T13:16:49.422Z,3.83
2022-11-17T13:21:59.800Z,3.57
2022-11-17T13:27:04.805Z,4.87
2022-11-17T13:32:17.419Z,3.07
2022-11-17T13:37:22.357Z,5.50
2022-11-17T13:42:27.679Z,5.90
2022-11-17T13:47:46.987Z,6.10
2022-11-17T13:52:53.596Z,7.33
2022-11-17T13:57:58.295Z,3.63
2022-11-17T14:03:05.110Z,10.93
2022-11-17T14:08:13.284Z,8.37
2022-11-17T14:13:32.233Z,6.80
2022-11-17T14:18:38.449Z,4.03
2022-11-17T14:23:42.359Z,10.37
2022-11-17T14:28:46.028Z,4.83
2022-11-17T14:33:51.084Z,7.07
2022-11-17T14:38:54.689Z,9.63
2022-11-17T14:43:58.498Z,8.00
2022-11-17T14:49:04.154Z,8.73
2022-11-17T14:54:08.068Z,6.70
2022-11-17T14:59:12.122Z,5.00
2022-11-17T15:04:48.958Z,9.13
2022-11-17T15:09:42.927Z,8.30
2022-11-17T15:14:48.380Z,8.23
2022-11-17T15:19:53.562Z,7.07
2022-11-17T15:24:57.039Z,5.97
2022-11-17T15:30:00.335Z,5.00
2022-11-17T15:35:05.049Z,5.43
2022-11-17T15:40:08.791Z,6.97
2022-11-17T15:45:12.292Z,10.73
2022-11-17T15:50:17.515Z,10.37
2022-11-17T15:55:20.976Z,8.50
2022-11-17T16:00:24.202Z,9.10
2022-11-17T16:05:28.939Z,4.70
2022-11-17T16:10:32.374Z,11.87
2022-11-17T16:15:35.670Z,6.30
2022-11-17T16:20:40.372Z,4.37
2022-11-17T16:25:44.579Z,7.53
2022-11-17T16:30:48.064Z,5.10
2022-11-17T16:35:52.662Z,4.23
2022-11-17T16:41:00.721Z,5.00
2022-11-17T16:46:15.740Z,9.33
2022-11-17T16:51:21.259Z,6.93
2022-11-17T16:56:24.651Z,4.37
2022-11-17T17:01:30.415Z,8.90
2022-11-17T17:06:37.194Z,9.80
2022-11-17T17:11:40.847Z,10.20
2022-11-17T17:16:44.252Z,13.20
2022-11-17T17:21:49.160Z,8.03
2022-11-17T17:26:52.546Z,6.77
2022-11-17T17:31:55.778Z,6.87
2022-11-17T17:37:00.560Z,10.67
2022-11-17T17:42:04.288Z,14.67
2022-11-17T17:47:07.674Z,7.53
2022-11-17T17:52:13.920Z,8.97
2022-11-17T17:57:17.470Z,11.23
2022-11-17T18:02:20.660Z,8.73
2022-11-17T18:07:25.314Z,5.90
2022-11-17T18:12:28.992Z,6.73
2022-11-17T18:17:32.299Z,8.13
2022-11-17T18:22:38.208Z,13.23
2022-11-17T18:27:41.904Z,10.30
2022-11-17T18:32:47.065Z,15.07
2022-11-17T18:37:51.928Z,8.57
2022-11-17T18:42:58.611Z,8.83
2022-11-17T18:48:02.020Z,9.57
2022-11-17T18:53:06.690Z,7.00
2022-11-17T18:58:10.025Z,7.57
2022-11-17T19:03:13.439Z,7.73
2022-11-17T19:08:18.044Z,9.60
2022-11-17T19:13:21.765Z,4.93
2022-11-17T19:18:25.081Z,5.67
2022-11-17T19:23:29.737Z,8.13
2022-11-17T19:28:33.215Z,9.23
2022-11-17T19:33:37.370Z,6.00
2022-11-17T19:38:43.143Z,6.43
2022-11-17T19:43:46.653Z,6.33
2022-11-17T19:48:50.136Z,5.33
2022-11-17T19:53:55.381Z,7.70
2022-11-17T19:58:58.747Z,4.23
2022-11-17T20:04:02.517Z,4.40
2022-11-17T20:09:10.940Z,11.13
2022-11-17T20:14:15.413Z,5.20
2022-11-17T20:19:19.163Z,12.77
2022-11-17T20:24:23.870Z,5.60
2022-11-17T20:29:27.267Z,5.67
2022-11-17T20:34:30.517Z,2.13
2022-11-17T20:39:35.069Z,4.30
2022-11-17T20:44:38.378Z,5.17
2022-11-17T20:49:41.568Z,6.97
2022-11-17T20:54:46.189Z,8.83
2022-11-17T20:59:49.475Z,7.67
2022-11-17T21:04:52.815Z,8.57
2022-11-17T21:09:57.474Z,4.00
2022-11-17T21:15:00.729Z,4.10
2022-11-17T21:20:04.141Z,4.37
2022-11-17T21:25:09.284Z,6.57
2022-11-17T21:30:13.130Z,11.43
2022-11-17T21:35:16.610Z,2.37
2022-11-17T21:40:21.450Z,2.83
2022-11-17T21:45:24.753Z,2.50
2022-11-17T21:50:28.130Z,2.00
2022-11-17T21:55:32.868Z,3.07
2022-11-17T22:00:36.358Z,1.97
2022-11-17T22:05:39.665Z,5.37
2022-11-17T22:10:44.418Z,5.63
2022-11-17T22:15:47.864Z,1.43
2022-11-17T22:20:51.756Z,3.27
2022-11-17T22:25:57.023Z,1.23
2022-11-17T22:31:00.332Z,2.10
2022-11-17T22:36:04.069Z,0.90
2022-11-17T22:41:09.302Z,1.30
2022-11-17T22:46:12.800Z,1.17
2022-11-17T22:51:37.584Z,2.13
2022-11-17T22:56:42.203Z,1.40
2022-11-17T23:01:45.494Z,0.90
2022-11-17T23:06:48.707Z,2.33
2022-11-17T23:11:53.281Z,0.63
2022-11-17T23:16:56.690Z,2.43
2022-11-17T23:22:00.104Z,0.97
2022-11-17T23:27:04.879Z,1.23
2022-11-17T23:32:08.252Z,1.40
2022-11-17T23:37:11.529Z,0.73
2022-11-17T23:42:15.986Z,0.73
2022-11-17T23:47:19.388Z,0.60
2022-11-17T23:52:22.750Z,0.90
2022-11-17T23:57:27.473Z,3.20
